Time;durP1;ratioP1;P1;durP2;ratioP2;P2;SDS_P1;SDS_P2;PMS_P1;PMS_P2;Temp;Humidity;BMP_temperature;BMP_pressure;BME280_temperature;BME280_humidity;BME280_pressure;Samples;Min_cycle;Max_cycle;Signal;HPM_P1;HPM_P2
2021/11/19 00:00:12;;;;;;;47.30;13.67;;;;;;;-145.18;100.00;60484.78;5036326;28;20497;-69
2021/11/19 00:02:38;;;;;;;37.83;13.80;;;;;;;-145.18;100.00;60484.78;5030854;28;20425;-68
2021/11/19 00:05:04;;;;;;;43.47;13.03;;;;;;;-145.18;100.00;60484.78;5037693;28;20868;-69
2021/11/19 00:07:31;;;;;;;41.57;13.67;;;;;;;-145.18;100.00;60484.78;5020023;28;20558;-69
2021/11/19 00:09:57;;;;;;;44.93;13.90;;;;;;;-145.18;100.00;60484.78;5036883;28;20032;-69
2021/11/19 00:12:23;;;;;;;48.17;13.57;;;;;;;-145.18;100.00;60484.78;5038083;28;20047;-69
2021/11/19 00:14:49;;;;;;;44.40;15.53;;;;;;;-145.18;100.00;60484.78;5037918;28;20412;-70
2021/11/19 00:17:15;;;;;;;45.37;14.10;;;;;;;-145.18;100.00;60484.78;5037889;28;20032;-70
2021/11/19 00:19:43;;;;;;;48.07;13.57;;;;;;;-145.18;100.00;60484.78;5019920;28;20029;-70
2021/11/19 00:22:10;;;;;;;40.43;14.43;;;;;;;-145.18;100.00;60484.78;5037950;28;20151;-69
2021/11/19 00:24:37;;;;;;;42.23;13.20;;;;;;;-145.18;100.00;60484.78;5037670;28;20032;-70
2021/11/19 00:27:04;;;;;;;44.67;14.30;;;;;;;-145.18;100.00;60484.78;5033441;28;20041;-69
2021/11/19 00:29:30;;;;;;;42.50;12.97;;;;;;;-145.18;100.00;60484.78;5038014;28;20592;-69
2021/11/19 00:31:55;;;;;;;47.53;14.00;;;;;;;-145.18;100.00;60484.78;5038069;28;20116;-69
2021/11/19 00:34:21;;;;;;;59.93;14.07;;;;;;;-145.18;100.00;60484.78;5038214;28;20675;-69
2021/11/19 00:36:47;;;;;;;46.10;13.50;;;;;;;-145.18;100.00;60484.78;5037378;28;20496;-69
2021/11/19 00:39:15;;;;;;;45.63;14.73;;;;;;;-145.18;100.00;60484.78;5037475;28;20075;-69
2021/11/19 00:41:42;;;;;;;54.40;14.50;;;;;;;-145.18;100.00;60484.78;5037782;28;20041;-69
2021/11/19 00:44:11;;;;;;;47.13;14.57;;;;;;;-145.18;100.00;60484.78;5037585;28;20048;-70
2021/11/19 00:46:38;;;;;;;45.30;14.63;;;;;;;-145.18;100.00;60484.78;5037753;28;20033;-70
2021/11/19 00:49:04;;;;;;;35.17;12.53;;;;;;;-145.18;100.00;60484.78;5036909;28;20079;-69
2021/11/19 00:51:37;;;;;;;53.30;14.50;;;;;;;-145.18;100.00;60484.78;5037239;28;20062;-70
2021/11/19 00:54:05;;;;;;;40.03;13.17;;;;;;;-145.18;100.00;60484.78;5041560;28;20114;-69
2021/11/19 00:56:36;;;;;;;47.87;13.43;;;;;;;-145.18;100.00;60484.78;5023049;28;20036;-69
2021/11/19 00:59:02;;;;;;;43.53;14.47;;;;;;;-145.18;100.00;60484.78;5040958;28;20090;-70
2021/11/19 01:01:34;;;;;;;46.00;14.90;;;;;;;-145.18;100.00;60484.78;5041216;28;20472;-70
2021/11/19 01:04:02;;;;;;;30.90;12.48;;;;;;;-145.18;100.00;60484.78;5040973;28;20233;-69
2021/11/19 01:06:29;;;;;;;42.23;13.63;;;;;;;-145.18;100.00;60484.78;5041222;28;20504;-70
2021/11/19 01:08:55;;;;;;;39.20;12.23;;;;;;;-145.18;100.00;60484.78;5041051;28;20496;-69
2021/11/19 01:11:23;;;;;;;34.80;12.27;;;;;;;-145.18;100.00;60484.78;5040819;28;20266;-69
2021/11/19 01:13:52;;;;;;;42.67;12.77;;;;;;;-145.18;100.00;60484.78;5040702;28;20033;-69
2021/11/19 01:16:26;;;;;;;37.37;13.70;;;;;;;-145.18;100.00;60484.78;5040258;28;20643;-69
2021/11/19 01:18:55;;;;;;;38.33;12.60;;;;;;;-145.18;100.00;60484.78;5040091;28;20055;-70
2021/11/19 01:21:31;;;;;;;47.03;13.60;;;;;;;-145.18;100.00;60484.78;5028660;28;20665;-69
2021/11/19 01:24:00;;;;;;;42.57;14.23;;;;;;;-145.18;100.00;60484.78;5040687;28;20123;-69
2021/11/19 01:26:33;;;;;;;43.17;14.13;;;;;;;-145.18;100.00;60484.78;5040219;28;20096;-70
2021/11/19 01:29:11;;;;;;;36.93;13.87;;;;;;;-145.18;100.00;60484.78;5040260;28;20033;-69
2021/11/19 01:31:41;;;;;;;44.37;15.17;;;;;;;-145.18;100.00;60484.78;5036398;28;20033;-70
2021/11/19 01:34:08;;;;;;;44.23;15.40;;;;;;;-145.18;100.00;60484.78;5040723;28;20616;-70
2021/11/19 01:36:34;;;;;;;39.10;12.33;;;;;;;-145.18;100.00;60484.78;5040576;28;20033;-69
2021/11/19 01:39:00;;;;;;;44.77;14.57;;;;;;;-145.18;100.00;60484.78;5040556;28;20020;-70
2021/11/19 01:41:35;;;;;;;31.93;11.20;;;;;;;-145.18;100.00;60484.78;5040543;28;20536;-69
2021/11/19 01:44:09;;;;;;;33.80;11.87;;;;;;;-145.18;100.00;60484.78;5040322;28;20028;-69
2021/11/19 01:46:34;;;;;;;37.70;13.93;;;;;;;-145.18;100.00;60484.78;5040403;28;20489;-69
2021/11/19 01:49:00;;;;;;;41.10;13.73;;;;;;;-145.18;100.00;60484.78;5040315;28;20025;-69
2021/11/19 01:51:37;;;;;;;39.43;13.13;;;;;;;-145.18;100.00;60484.78;5040322;28;20029;-69
2021/11/19 01:54:08;;;;;;;32.50;11.87;;;;;;;-145.18;100.00;60484.78;5039440;28;20583;-70
2021/11/19 01:56:45;;;;;;;32.63;12.53;;;;;;;-145.18;100.00;60484.78;5036700;28;20276;-69
2021/11/19 01:59:45;;;;;;;34.20;12.20;;;;;;;-145.18;100.00;60484.78;5040091;28;20025;-69
2021/11/19 02:02:34;;;;;;;39.87;13.03;;;;;;;-145.18;100.00;60484.78;5065574;23;20147;-67
2021/11/19 02:05:24;;;;;;;28.77;12.10;;;;;;;-145.18;100.00;60484.78;5061625;28;20447;-67
2021/11/19 02:07:53;;;;;;;28.47;11.13;;;;;;;-145.18;100.00;60484.78;5056321;28;20059;-67
2021/11/19 02:10:37;;;;;;;35.03;12.00;;;;;;;-145.18;100.00;60484.78;5059671;28;20496;-67
2021/11/19 02:13:02;;;;;;;34.73;12.10;;;;;;;-145.18;100.00;60484.78;5059771;28;20550;-67
2021/11/19 02:15:36;;;;;;;30.53;10.83;;;;;;;-145.18;100.00;60484.78;5059601;28;20032;-67
2021/11/19 02:18:30;;;;;;;33.10;10.83;;;;;;;-145.18;100.00;60484.78;5046681;28;20028;-67
2021/11/19 02:21:17;;;;;;;28.40;10.73;;;;;;;-145.18;100.00;60484.78;5020704;28;20182;-67
2021/11/19 02:23:52;;;;;;;27.40;11.10;;;;;;;-145.18;100.00;60484.78;4980896;28;20482;-67
2021/11/19 02:26:21;;;;;;;28.33;11.37;;;;;;;-145.18;100.00;60484.78;5016831;28;20325;-67
2021/11/19 02:28:50;;;;;;;37.33;12.77;;;;;;;-145.18;100.00;60484.78;5016197;28;20033;-67
2021/11/19 02:31:22;;;;;;;37.50;11.60;;;;;;;-145.18;100.00;60484.78;5016215;28;20549;-67
2021/11/19 02:33:49;;;;;;;;;;;;;;;-145.18;100.00;60484.78;5016994;28;20100;-67
2021/11/19 02:36:18;;;;;;;29.53;11.97;;;;;;;-145.18;100.00;60484.78;5015948;28;20002;-67
2021/11/19 02:38:52;;;;;;;35.50;12.20;;;;;;;-145.18;100.00;60484.78;5015623;28;20091;-67
2021/11/19 02:41:22;;;;;;;37.27;12.43;;;;;;;-145.18;100.00;60484.78;5015962;28;20064;-67
2021/11/19 02:43:53;;;;;;;33.43;12.57;;;;;;;-145.18;100.00;60484.78;5015688;28;20041;-67
2021/11/19 02:46:23;;;;;;;30.48;10.85;;;;;;;-145.18;100.00;60484.78;5015601;28;20376;-67
2021/11/19 02:48:49;;;;;;;42.93;11.43;;;;;;;-145.18;100.00;60484.78;5015928;28;20146;-67
2021/11/19 02:51:16;;;;;;;34.33;10.83;;;;;;;-145.18;100.00;60484.78;5015642;28;20357;-67
2021/11/19 02:53:45;;;;;;;29.40;10.23;;;;;;;-145.18;100.00;60484.78;5015038;28;20338;-67
2021/11/19 02:56:11;;;;;;;30.07;12.20;;;;;;;-145.18;100.00;60484.78;5017031;28;20037;-67
2021/11/19 02:58:41;;;;;;;29.03;10.47;;;;;;;-145.18;100.00;60484.78;5035932;28;20392;-67
2021/11/19 03:01:06;;;;;;;32.17;12.17;;;;;;;-145.18;100.00;60484.78;5048590;28;20532;-67
2021/11/19 03:03:32;;;;;;;31.30;11.90;;;;;;;-145.18;100.00;60484.78;5025101;28;20037;-67
2021/11/19 03:05:58;;;;;;;30.83;10.97;;;;;;;-145.18;100.00;60484.78;5032990;28;20025;-67
2021/11/19 03:08:24;;;;;;;26.17;9.87;;;;;;;-145.18;100.00;60484.78;5020469;28;20048;-67
2021/11/19 03:10:55;;;;;;;27.43;11.80;;;;;;;-145.18;100.00;60484.78;5030175;28;20428;-67
2021/11/19 03:13:22;;;;;;;29.43;9.70;;;;;;;-145.18;100.00;60484.78;5020155;28;20459;-67
2021/11/19 03:15:49;;;;;;;24.47;9.43;;;;;;;-145.18;100.00;60484.78;5036086;28;20084;-67
2021/11/19 03:18:17;;;;;;;27.40;10.27;;;;;;;-145.18;100.00;60484.78;5019568;28;20029;-67
2021/11/19 03:20:45;;;;;;;23.73;9.10;;;;;;;-145.18;100.00;60484.78;5032633;28;20166;-67
2021/11/19 03:23:11;;;;;;;24.17;9.43;;;;;;;-145.18;100.00;60484.78;5019185;28;20055;-67
2021/11/19 03:25:39;;;;;;;28.60;10.73;;;;;;;-145.18;100.00;60484.78;5028506;28;20108;-67
2021/11/19 03:28:07;;;;;;;27.57;11.17;;;;;;;-145.18;100.00;60484.78;5025771;28;20128;-67
2021/11/19 03:30:34;;;;;;;20.77;8.30;;;;;;;-145.18;100.00;60484.78;5027373;28;20043;-67
2021/11/19 03:33:00;;;;;;;22.43;8.67;;;;;;;-145.18;100.00;60484.78;5019198;28;20033;-67
2021/11/19 03:35:28;;;;;;;23.97;9.67;;;;;;;-145.18;100.00;60484.78;5030776;28;20093;-67
2021/11/19 03:37:55;;;;;;;23.40;9.60;;;;;;;-145.18;100.00;60484.78;5019113;28;20505;-67
2021/11/19 03:40:25;;;;;;;22.63;9.60;;;;;;;-145.18;100.00;60484.78;5023239;28;20037;-67
2021/11/19 03:42:52;;;;;;;27.23;10.00;;;;;;;-145.18;100.00;60484.78;5026520;28;20044;-67
2021/11/19 03:45:23;;;;;;;26.83;10.17;;;;;;;-145.18;100.00;60484.78;5021445;28;20041;-67
2021/11/19 03:47:51;;;;;;;23.13;8.60;;;;;;;-145.18;100.00;60484.78;5026934;28;20489;-67
2021/11/19 03:50:31;;;;;;;25.50;8.83;;;;;;;-145.18;100.00;60484.78;5027070;28;20276;-67
2021/11/19 03:52:57;;;;;;;22.73;9.20;;;;;;;-145.18;100.00;60484.78;5023093;28;20063;-67
2021/11/19 03:55:27;;;;;;;25.10;8.63;;;;;;;-145.18;100.00;60484.78;5028895;28;20024;-67
2021/11/19 03:57:53;;;;;;;23.57;10.13;;;;;;;-145.18;100.00;60484.78;5024922;28;20528;-67
2021/11/19 04:00:43;;;;;;;24.03;9.20;;;;;;;-145.18;100.00;60484.78;5021957;28;20102;-67
2021/11/19 04:03:10;;;;;;;21.27;8.67;;;;;;;-145.18;100.00;60484.78;5018519;28;20056;-67
2021/11/19 04:05:36;;;;;;;21.80;8.43;;;;;;;-145.18;100.00;60484.78;5028201;28;20228;-67
2021/11/19 04:08:03;;;;;;;21.57;9.10;;;;;;;-145.18;100.00;60484.78;5024231;28;20020;-67
2021/11/19 04:10:29;;;;;;;20.47;9.83;;;;;;;-145.18;100.00;60484.78;5026082;28;20033;-67
2021/11/19 04:12:55;;;;;;;20.40;8.07;;;;;;;-145.18;100.00;60484.78;5032074;28;20030;-67
2021/11/19 04:15:25;;;;;;;19.53;7.90;;;;;;;-145.18;100.00;60484.78;5024955;28;20017;-67
2021/11/19 04:17:51;;;;;;;18.60;8.90;;;;;;;-145.18;100.00;60484.78;5024707;28;20486;-67
2021/11/19 04:20:17;;;;;;;20.60;8.07;;;;;;;-145.18;100.00;60484.78;5029236;28;20021;-67
2021/11/19 04:22:43;;;;;;;22.97;9.13;;;;;;;-145.18;100.00;60484.78;5025820;28;20083;-67
2021/11/19 04:25:11;;;;;;;20.27;8.00;;;;;;;-145.18;100.00;60484.78;5033642;28;20028;-67
2021/11/19 04:27:38;;;;;;;25.03;8.87;;;;;;;-145.18;100.00;60484.78;5025074;28;20268;-67
2021/11/19 04:30:07;;;;;;;22.40;8.30;;;;;;;-145.18;100.00;60484.78;5029948;28;20048;-67
2021/11/19 04:32:32;;;;;;;19.40;7.67;;;;;;;-145.18;100.00;60484.78;5026052;28;20283;-67
2021/11/19 04:34:58;;;;;;;20.03;8.60;;;;;;;-145.18;100.00;60484.78;5033991;28;20396;-67
2021/11/19 04:37:24;;;;;;;23.00;8.03;;;;;;;-145.18;100.00;60484.78;5028920;28;20051;-67
2021/11/19 04:39:50;;;;;;;19.87;8.20;;;;;;;-145.18;100.00;60484.78;5023831;28;20087;-67
2021/11/19 04:42:16;;;;;;;18.17;7.57;;;;;;;-145.18;100.00;60484.78;5030860;28;20120;-67
2021/11/19 04:44:42;;;;;;;23.40;8.07;;;;;;;-145.18;100.00;60484.78;5021890;28;20227;-67
2021/11/19 04:47:07;;;;;;;17.43;7.37;;;;;;;-145.18;100.00;60484.78;5025167;28;20120;-67
2021/11/19 04:49:34;;;;;;;19.93;9.50;;;;;;;-145.18;100.00;60484.78;5029378;28;20027;-67
2021/11/19 04:52:00;;;;;;;16.53;7.50;;;;;;;-145.18;100.00;60484.78;5026588;28;20029;-68
2021/11/19 04:54:26;;;;;;;17.73;8.53;;;;;;;-145.18;100.00;60484.78;5023305;28;20327;-67
2021/11/19 04:56:52;;;;;;;21.10;7.90;;;;;;;-145.18;100.00;60484.78;5041624;28;20029;-67
2021/11/19 04:59:21;;;;;;;19.53;8.03;;;;;;;-145.18;100.00;60484.78;5027837;28;20026;-67
2021/11/19 05:01:50;;;;;;;22.50;8.67;;;;;;;-145.18;100.00;60484.78;5039980;28;20103;-67
2021/11/19 05:04:16;;;;;;;21.23;8.23;;;;;;;-145.18;100.00;60484.78;5030960;28;20029;-67
2021/11/19 05:06:42;;;;;;;20.27;8.73;;;;;;;-145.18;100.00;60484.78;5040326;28;20158;-67
2021/11/19 05:09:09;;;;;;;20.80;8.07;;;;;;;-145.18;100.00;60484.78;5027454;28;20436;-67
2021/11/19 05:11:53;;;;;;;17.77;7.30;;;;;;;-145.18;100.00;60484.78;5030377;28;20105;-67
2021/11/19 05:14:19;;;;;;;20.77;8.47;;;;;;;-145.18;100.00;60484.78;5034470;28;20425;-67
2021/11/19 05:16:45;;;;;;;22.27;8.23;;;;;;;-145.18;100.00;60484.78;5038713;28;20036;-67
2021/11/19 05:19:12;;;;;;;19.00;7.57;;;;;;;-145.18;100.00;60484.78;5029604;28;20025;-67
2021/11/19 05:21:38;;;;;;;15.97;6.80;;;;;;;-145.18;100.00;60484.78;5041219;28;20261;-67
2021/11/19 05:24:06;;;;;;;17.47;7.80;;;;;;;-145.18;100.00;60484.78;5027282;28;20117;-67
2021/11/19 05:26:31;;;;;;;16.43;7.17;;;;;;;-145.18;100.00;60484.78;5038836;28;20029;-67
2021/11/19 05:28:58;;;;;;;20.30;7.77;;;;;;;-145.18;100.00;60484.78;5027918;28;20032;-67
2021/11/19 05:31:24;;;;;;;22.40;9.20;;;;;;;-145.18;100.00;60484.78;5032733;28;20037;-67
2021/11/19 05:33:51;;;;;;;20.87;7.97;;;;;;;-145.18;100.00;60484.78;5028527;28;20035;-67
2021/11/19 05:36:17;;;;;;;19.53;8.13;;;;;;;-145.18;100.00;60484.78;5027469;28;20269;-67
2021/11/19 05:38:43;;;;;;;23.53;9.13;;;;;;;-145.18;100.00;60484.78;5020741;28;20086;-67
2021/11/19 05:41:11;;;;;;;20.70;8.90;;;;;;;-145.18;100.00;60484.78;5027510;28;20085;-68
2021/11/19 05:43:38;;;;;;;24.27;7.83;;;;;;;-145.18;100.00;60484.78;5032002;28;20028;-68
2021/11/19 05:46:05;;;;;;;20.67;7.77;;;;;;;-145.18;100.00;60484.78;5029697;28;20037;-68
2021/11/19 05:48:30;;;;;;;30.73;10.87;;;;;;;-145.18;100.00;60484.78;5020444;28;20021;-68
2021/11/19 05:50:56;;;;;;;20.10;9.13;;;;;;;-145.18;100.00;60484.78;5030566;28;20025;-68
2021/11/19 05:53:22;;;;;;;20.63;8.57;;;;;;;-145.18;100.00;60484.78;5032255;28;20032;-68
2021/11/19 05:55:49;;;;;;;19.63;8.90;;;;;;;-145.18;100.00;60484.78;5030056;28;20232;-68
2021/11/19 05:58:16;;;;;;;23.00;8.97;;;;;;;-145.18;100.00;60484.78;5024241;28;20057;-68
2021/11/19 06:00:56;;;;;;;20.77;8.53;;;;;;;-145.18;100.00;60484.78;5026291;28;20284;-68
2021/11/19 06:03:22;;;;;;;21.93;8.60;;;;;;;-145.18;100.00;60484.78;5025532;28;20033;-68
2021/11/19 06:05:48;;;;;;;22.20;9.07;;;;;;;-145.18;100.00;60484.78;5030078;28;20328;-68
2021/11/19 06:08:13;;;;;;;22.83;8.63;;;;;;;-145.18;100.00;60484.78;5032269;28;20022;-67
2021/11/19 06:10:50;;;;;;;24.33;10.07;;;;;;;-145.18;100.00;60484.78;5037313;28;20277;-67
2021/11/19 06:13:17;;;;;;;23.03;9.87;;;;;;;-145.18;100.00;60484.78;5031246;28;20398;-67
2021/11/19 06:15:47;;;;;;;21.70;9.10;;;;;;;-145.18;100.00;60484.78;5029980;28;20581;-67
2021/11/19 06:18:26;;;;;;;32.10;10.47;;;;;;;-145.18;100.00;60484.78;5029868;28;20020;-67
2021/11/19 06:20:56;;;;;;;27.90;9.97;;;;;;;-145.18;100.00;60484.78;5025015;28;20039;-67
2021/11/19 06:23:26;;;;;;;25.90;9.97;;;;;;;-145.18;100.00;60484.78;5023869;28;20435;-67
2021/11/19 06:25:53;;;;;;;24.90;9.57;;;;;;;-145.18;100.00;60484.78;5023815;28;20040;-67
2021/11/19 06:28:26;;;;;;;25.70;10.00;;;;;;;-145.18;100.00;60484.78;5024229;28;20025;-67
2021/11/19 06:30:52;;;;;;;23.53;9.90;;;;;;;-145.18;100.00;60484.78;5040844;28;20040;-67
2021/11/19 06:33:19;;;;;;;28.37;11.67;;;;;;;-145.18;100.00;60484.78;5027915;28;20043;-67
2021/11/19 06:35:46;;;;;;;31.20;10.97;;;;;;;-145.18;100.00;60484.78;5040547;28;20052;-67
2021/11/19 06:38:12;;;;;;;25.83;10.40;;;;;;;-145.18;100.00;60484.78;5027271;28;20235;-67
2021/11/19 06:40:38;;;;;;;30.93;10.97;;;;;;;-145.18;100.00;60484.78;5025517;28;20394;-67
2021/11/19 06:43:04;;;;;;;30.37;10.83;;;;;;;-145.18;100.00;60484.78;5021992;28;20029;-67
2021/11/19 06:45:31;;;;;;;35.73;11.00;;;;;;;-145.18;100.00;60484.78;5032345;28;20107;-67
2021/11/19 06:47:56;;;;;;;30.83;10.43;;;;;;;-145.18;100.00;60484.78;5026876;28;20032;-67
2021/11/19 06:50:24;;;;;;;31.13;12.13;;;;;;;-145.18;100.00;60484.78;5038143;28;20282;-67
2021/11/19 06:52:50;;;;;;;37.30;12.90;;;;;;;-145.18;100.00;60484.78;5029660;28;20131;-67
2021/11/19 06:55:16;;;;;;;32.97;12.10;;;;;;;-145.18;100.00;60484.78;5034928;28;20517;-67
2021/11/19 06:57:42;;;;;;;38.10;13.93;;;;;;;-145.18;100.00;60484.78;5038398;28;20231;-67
2021/11/19 07:00:16;;;;;;;34.77;12.80;;;;;;;-145.18;100.00;60484.78;5025776;28;20142;-67
2021/11/19 07:02:41;;;;;;;30.20;12.47;;;;;;;-145.18;100.00;60484.78;5030748;28;20259;-67
2021/11/19 07:05:07;;;;;;;31.97;12.50;;;;;;;-145.18;100.00;60484.78;5027814;28;20228;-68
2021/11/19 07:07:33;;;;;;;32.23;11.53;;;;;;;-145.18;100.00;60484.78;5032316;28;20123;-67
2021/11/19 07:09:58;;;;;;;34.17;13.53;;;;;;;-145.18;100.00;60484.78;5023052;28;20041;-67
2021/11/19 07:12:23;;;;;;;36.37;12.30;;;;;;;-145.18;100.00;60484.78;5027218;28;20489;-67
2021/11/19 07:14:49;;;;;;;35.20;12.80;;;;;;;-145.18;100.00;60484.78;5023869;28;20489;-67
2021/11/19 07:17:15;;;;;;;35.80;11.93;;;;;;;-145.18;100.00;60484.78;5036724;28;20037;-67
2021/11/19 07:19:42;;;;;;;35.27;12.13;;;;;;;-145.18;100.00;60484.78;5025794;28;20021;-67
2021/11/19 07:22:08;;;;;;;38.73;13.30;;;;;;;-145.18;100.00;60484.78;5035111;28;20045;-67
2021/11/19 07:24:36;;;;;;;34.53;13.17;;;;;;;-145.18;100.00;60484.78;5023110;28;20060;-67
2021/11/19 07:27:02;;;;;;;41.33;13.23;;;;;;;-145.18;100.00;60484.78;5033937;28;20044;-67
2021/11/19 07:29:29;;;;;;;40.57;13.03;;;;;;;-145.18;100.00;60484.78;5031457;28;20030;-67
2021/11/19 07:31:54;;;;;;;33.90;12.30;;;;;;;-145.18;100.00;60484.78;5023407;28;20484;-67
2021/11/19 07:34:20;;;;;;;39.43;13.70;;;;;;;-145.18;100.00;60484.78;5021140;28;20033;-67
2021/11/19 07:36:45;;;;;;;38.73;12.97;;;;;;;-145.18;100.00;60484.78;5034250;28;20488;-67
2021/11/19 07:39:12;;;;;;;34.17;13.30;;;;;;;-145.18;100.00;60484.78;5022989;28;20237;-67
2021/11/19 07:41:38;;;;;;;37.37;13.90;;;;;;;-145.18;100.00;60484.78;5034987;28;20045;-67
2021/11/19 07:44:04;;;;;;;36.40;12.67;;;;;;;-145.18;100.00;60484.78;5031465;28;20033;-67
2021/11/19 07:46:31;;;;;;;38.70;14.33;;;;;;;-145.18;100.00;60484.78;5024509;28;20423;-67
2021/11/19 07:48:57;;;;;;;39.63;13.40;;;;;;;-145.18;100.00;60484.78;5035067;28;20528;-67
2021/11/19 07:51:27;;;;;;;38.77;13.50;;;;;;;-145.18;100.00;60484.78;5029324;28;20060;-67
2021/11/19 07:53:53;;;;;;;36.33;14.10;;;;;;;-145.18;100.00;60484.78;5025082;28;20266;-67
2021/11/19 07:56:27;;;;;;;37.37;14.07;;;;;;;-145.18;100.00;60484.78;5046953;28;20290;-67
2021/11/19 07:58:52;;;;;;;39.53;13.67;;;;;;;-145.18;100.00;60484.78;5019232;28;20080;-67
2021/11/19 08:01:18;;;;;;;37.60;14.03;;;;;;;-145.18;100.00;60484.78;5041928;28;20489;-67
2021/11/19 08:03:43;;;;;;;36.07;13.27;;;;;;;-145.18;100.00;60484.78;5033231;28;20504;-67
2021/11/19 08:06:09;;;;;;;41.63;14.73;;;;;;;-145.18;100.00;60484.78;5047518;28;20036;-66
2021/11/19 08:08:37;;;;;;;38.53;13.60;;;;;;;-145.18;100.00;60484.78;5026771;28;20065;-67
2021/11/19 08:11:07;;;;;;;37.00;13.50;;;;;;;-145.18;100.00;60484.78;5036573;28;20049;-67
2021/11/19 08:13:34;;;;;;;39.27;13.77;;;;;;;-145.18;100.00;60484.78;5024135;28;20206;-67
2021/11/19 08:15:59;;;;;;;35.27;12.67;;;;;;;-145.18;100.00;60484.78;5042251;28;20446;-67
2021/11/19 08:18:29;;;;;;;32.23;11.80;;;;;;;-145.18;100.00;60484.78;5034877;28;20028;-67
2021/11/19 08:20:56;;;;;;;39.57;13.97;;;;;;;-145.18;100.00;60484.78;5034381;28;20062;-67
2021/11/19 08:23:34;;;;;;;32.17;12.93;;;;;;;-145.18;100.00;60484.78;5033664;28;20040;-67
2021/11/19 08:26:21;;;;;;;31.80;11.77;;;;;;;-145.18;100.00;60484.78;5039364;28;20228;-67
2021/11/19 08:28:48;;;;;;;35.77;14.00;;;;;;;-145.18;100.00;60484.78;5034631;28;20124;-67
2021/11/19 08:31:17;;;;;;;27.43;10.97;;;;;;;-145.18;100.00;60484.78;5034009;28;20595;-67
2021/11/19 08:33:42;;;;;;;28.60;11.67;;;;;;;-145.18;100.00;60484.78;5022129;28;20109;-67
2021/11/19 08:36:08;;;;;;;32.57;13.13;;;;;;;-145.18;100.00;60484.78;5045153;28;20055;-67
2021/11/19 08:38:34;;;;;;;36.70;12.47;;;;;;;-145.18;100.00;60484.78;5027557;28;20523;-67
2021/11/19 08:41:00;;;;;;;33.93;11.67;;;;;;;-145.18;100.00;60484.78;5049238;28;20269;-66
2021/11/19 08:43:34;;;;;;;28.20;11.53;;;;;;;-145.18;100.00;60484.78;5022684;28;20108;-67
2021/11/19 08:46:02;;;;;;;29.47;11.70;;;;;;;-145.18;100.00;60484.78;5033004;28;20056;-67
2021/11/19 08:48:29;;;;;;;28.10;12.50;;;;;;;-145.18;100.00;60484.78;5029152;28;20025;-68
2021/11/19 08:50:57;;;;;;;25.13;10.37;;;;;;;-145.18;100.00;60484.78;5035238;28;20489;-68
2021/11/19 08:53:23;;;;;;;32.50;12.67;;;;;;;-145.18;100.00;60484.78;5025630;28;20029;-67
2021/11/19 08:55:52;;;;;;;26.47;10.77;;;;;;;-145.18;100.00;60484.78;5047355;28;20024;-67
2021/11/19 08:58:23;;;;;;;28.33;11.07;;;;;;;-145.18;100.00;60484.78;5025905;28;20033;-67
2021/11/19 09:00:50;;;;;;;25.03;9.50;;;;;;;-145.18;100.00;60484.78;5026076;28;20164;-67
2021/11/19 09:03:15;;;;;;;27.33;10.90;;;;;;;-145.18;100.00;60484.78;5022550;28;20116;-68
2021/11/19 09:05:43;;;;;;;30.37;11.10;;;;;;;-145.18;100.00;60484.78;5035235;28;20128;-67
2021/11/19 09:08:13;;;;;;;25.87;10.43;;;;;;;-145.18;100.00;60484.78;5021626;28;20025;-68
2021/11/19 09:10:40;;;;;;;25.27;9.73;;;;;;;-145.18;100.00;60484.78;5025534;28;20064;-68
2021/11/19 09:13:06;;;;;;;24.43;10.40;;;;;;;-145.18;100.00;60484.78;5029272;28;20083;-68
2021/11/19 09:15:33;;;;;;;24.33;10.37;;;;;;;-145.18;100.00;60484.78;5034684;28;20496;-68
2021/11/19 09:18:25;;;;;;;27.33;10.37;;;;;;;-145.18;100.00;60484.78;5031637;28;20520;-68
2021/11/19 09:21:25;;;;;;;24.65;11.38;;;;;;;-145.18;100.00;60484.78;5039825;28;20116;-68
2021/11/19 09:23:56;;;;;;;26.77;9.77;;;;;;;-145.18;100.00;60484.78;4983002;28;20675;-68
2021/11/19 09:26:45;;;;;;;23.57;10.53;;;;;;;-145.18;100.00;60484.78;4993861;28;20037;-67
2021/11/19 09:29:15;;;;;;;23.33;10.13;;;;;;;-145.18;100.00;60484.78;4998023;28;20045;-68
2021/11/19 09:31:42;;;;;;;24.63;10.47;;;;;;;-145.18;100.00;60484.78;4991809;28;20034;-67
2021/11/19 09:34:09;;;;;;;22.60;10.03;;;;;;;-145.18;100.00;60484.78;4988484;28;20057;-68
2021/11/19 09:36:36;;;;;;;21.67;9.83;;;;;;;-145.18;100.00;60484.78;4986790;28;20025;-68
2021/11/19 09:39:05;;;;;;;20.87;9.90;;;;;;;-145.18;100.00;60484.78;4993361;28;20292;-68
2021/11/19 09:41:43;;;;;;;24.87;9.50;;;;;;;-145.18;100.00;60484.78;4989364;28;20030;-68
2021/11/19 09:44:39;;;;;;;24.47;9.93;;;;;;;-145.18;100.00;60484.78;4983831;28;20057;-68
2021/11/19 09:47:26;;;;;;;22.00;9.90;;;;;;;-145.18;100.00;60484.78;4984576;28;20136;-68
2021/11/19 09:50:17;;;;;;;24.27;9.40;;;;;;;-145.18;100.00;60484.78;4992183;28;20047;-68
2021/11/19 09:53:01;;;;;;;23.50;9.07;;;;;;;-145.18;100.00;60484.78;4990945;28;20088;-68
2021/11/19 09:55:37;;;;;;;23.00;9.93;;;;;;;-145.18;100.00;60484.78;4989161;28;20274;-68
2021/11/19 09:58:15;;;;;;;18.93;8.13;;;;;;;-145.18;100.00;60484.78;4991261;28;20061;-68
2021/11/19 10:00:58;;;;;;;25.53;9.30;;;;;;;-145.18;100.00;60484.78;5034936;28;20048;-67
2021/11/19 10:03:35;;;;;;;27.87;9.23;;;;;;;-145.18;100.00;60484.78;5035927;28;20037;-67
2021/11/19 10:06:21;;;;;;;22.03;9.30;;;;;;;-145.18;100.00;60484.78;5043654;28;20024;-67
2021/11/19 10:08:57;;;;;;;30.77;9.63;;;;;;;-145.18;100.00;60484.78;5020448;28;20061;-67
2021/11/19 10:11:38;;;;;;;20.47;8.80;;;;;;;-145.18;100.00;60484.78;5040645;28;20029;-68
2021/11/19 10:14:42;;;;;;;23.57;8.97;;;;;;;-145.18;100.00;60484.78;5027458;28;20116;-68
2021/11/19 10:17:19;;;;;;;18.63;8.33;;;;;;;-145.18;100.00;60484.78;5027361;28;20143;-68
2021/11/19 10:20:08;;;;;;;17.13;7.37;;;;;;;-145.18;100.00;60484.78;5029285;28;20189;-67
2021/11/19 10:22:41;;;;;;;25.23;9.10;;;;;;;-145.18;100.00;60484.78;5006173;28;20186;-67
2021/11/19 10:25:33;;;;;;;22.57;9.23;;;;;;;-145.18;100.00;60484.78;5015063;28;20245;-67
2021/11/19 10:28:17;;;;;;;26.50;9.70;;;;;;;-145.18;100.00;60484.78;5010035;28;20041;-67
2021/11/19 10:30:51;;;;;;;25.07;9.27;;;;;;;-145.18;100.00;60484.78;5014208;28;20033;-67
2021/11/19 10:33:28;;;;;;;20.37;8.67;;;;;;;-145.18;100.00;60484.78;5002593;28;20183;-67
2021/11/19 10:35:59;;;;;;;18.90;7.77;;;;;;;-145.18;100.00;60484.78;5000335;28;20034;-67
2021/11/19 10:38:27;;;;;;;17.17;8.90;;;;;;;-145.18;100.00;60484.78;5004736;28;20399;-67
2021/11/19 10:41:17;;;;;;;17.73;8.67;;;;;;;-145.18;100.00;60484.78;5016659;28;20510;-68
2021/11/19 10:44:01;;;;;;;18.93;7.87;;;;;;;-145.18;100.00;60484.78;5008230;28;20049;-68
2021/11/19 10:46:55;;;;;;;23.53;9.60;;;;;;;-145.18;100.00;60484.78;5003902;28;20041;-68
2021/11/19 10:49:38;;;;;;;23.67;8.40;;;;;;;-145.18;100.00;60484.78;5003707;28;20029;-68
2021/11/19 10:52:53;;;;;;;16.60;7.90;;;;;;;-145.18;100.00;60484.78;5002359;28;20041;-68
2021/11/19 10:55:32;;;;;;;16.50;7.27;;;;;;;-145.18;100.00;60484.78;4986063;28;20168;-68
2021/11/19 10:58:12;;;;;;;18.30;7.77;;;;;;;-145.18;100.00;60484.78;4996413;28;20049;-68
2021/11/19 11:01:02;;;;;;;17.60;7.60;;;;;;;-145.18;100.00;60484.78;4988376;28;20164;-68
2021/11/19 11:03:33;;;;;;;20.10;8.33;;;;;;;-145.18;100.00;60484.78;4986213;28;20068;-68
2021/11/19 11:06:09;;;;;;;18.97;8.43;;;;;;;-145.18;100.00;60484.78;4988558;28;20038;-68
2021/11/19 11:08:38;;;;;;;19.70;8.33;;;;;;;-145.18;100.00;60484.78;4983733;28;20391;-68
2021/11/19 11:11:09;;;;;;;13.93;7.03;;;;;;;-145.18;100.00;60484.78;4994974;28;20637;-68